Sincerity Ace — 3FFD7 — position and weather

sailwx.info

Track history (hours):
 
Tides and Currents Weather Stations Pressure Air Temp Water Temp Dewpoint Dewpoint Depression Visibility Wind Speed Wind Dir Waves Ship Positions

Sincerity Ace

Last reported at 2015-Jan-19 09:18 UTC. Time now 2015-Feb-01 04:11 UTC.
Position N 01°17' E 104°18'.
Warning: this ship's position is 12 days out of date.

Length 200 m; draft 8.5 m.

Type: Cargo ship. MMSI: 351690000.

Date/timePositionNaut miles runAvg speedWind from/ knotsBaromVisibWave heightAir tempDewpointWater temp
2015-Jan-19 09:18N 01°17' E 104°18'1519.7
2015-Jan-19 08:33N 01°15' E 104°04'1515.4
2015-Jan-19 07:34N 01°12' E 103°49'7 6.5
2015-Jan-19 06:33N 01°17' E 103°45'0 0.3
2015-Jan-19 05:26N 01°17' E 103°45'0 0.0
2015-Jan-19 04:32N 01°17' E 103°45'0 0.0
2015-Jan-19 03:29N 01°17' E 103°45'0 0.0
2015-Jan-19 02:20N 01°17' E 103°45'0 0.0
2015-Jan-19 01:32N 01°17' E 103°45'0 0.0
2015-Jan-19 00:20N 01°17' E 103°45'0 0.0
2015-Jan-18 23:33N 01°17' E 103°45'4 4.2
2015-Jan-18 22:33N 01°13' E 103°48'6 5.7
2015-Jan-18 21:29N 01°15' E 103°53'0 0.0
2015-Jan-18 20:29N 01°15' E 103°53'0 0.0
2015-Jan-18 19:20N 01°15' E 103°53'0 0.0
2015-Jan-18 18:29N 01°15' E 103°53'0 0.0
2015-Jan-18 17:20N 01°15' E 103°53'0 0.0
2015-Jan-18 16:26N 01°15' E 103°53'0 0.0
2015-Jan-18 15:32N 01°15' E 103°53'0 0.0
2015-Jan-18 14:32N 01°15' E 103°53'0 0.0
2015-Jan-18 13:05N 01°15' E 103°53'0 0.0
2015-Jan-18 12:29N 01°15' E 103°53'0 0.0
2015-Jan-18 11:17N 01°15' E 103°53'0 0.0
2015-Jan-18 09:29N 01°15' E 103°53'0 0.1
2015-Jan-18 08:29N 01°15' E 103°53'0 0.1
2015-Jan-18 07:32N 01°15' E 103°53'0 0.1
2015-Jan-18 06:33N 01°15' E 103°53'1 1.1
2015-Jan-18 05:33N 01°15' E 103°54'7 6.6
2015-Jan-18 04:32N 01°10' E 103°49'7610.6
2015-Jan-17 21:25N 01°42' E 102°40'1618.1
2015-Jan-17 20:33N 01°48' E 102°26'  
Track history (hours):
 
Tides and Currents Weather Stations Pressure Air Temp Water Temp Dewpoint Dewpoint Depression Visibility Wind Speed Wind Dir Waves Ship Positions

Sincerity Ace

Last reported at 2015-Jan-19 09:18 UTC. Time now 2015-Feb-01 04:11 UTC.
Position N 01°17' E 104°18'.
Warning: this ship's position is 12 days out of date.

Length 200 m; draft 8.5 m.

Type: Cargo ship. MMSI: 351690000.

Date/timePositionNaut miles runAvg speedWind from/ knotsBaromVisibWave heightAir tempDewpointWater temp
2015-Jan-19 09:18N 01°17' E 104°18'1519.7
2015-Jan-19 08:33N 01°15' E 104°04'1515.4
2015-Jan-19 07:34N 01°12' E 103°49'7 6.5
2015-Jan-19 06:33N 01°17' E 103°45'0 0.3
2015-Jan-19 05:26N 01°17' E 103°45'0 0.0
2015-Jan-19 04:32N 01°17' E 103°45'0 0.0
2015-Jan-19 03:29N 01°17' E 103°45'0 0.0
2015-Jan-19 02:20N 01°17' E 103°45'0 0.0
2015-Jan-19 01:32N 01°17' E 103°45'0 0.0
2015-Jan-19 00:20N 01°17' E 103°45'0 0.0
2015-Jan-18 23:33N 01°17' E 103°45'4 4.2
2015-Jan-18 22:33N 01°13' E 103°48'6 5.7
2015-Jan-18 21:29N 01°15' E 103°53'0 0.0
2015-Jan-18 20:29N 01°15' E 103°53'0 0.0
2015-Jan-18 19:20N 01°15' E 103°53'0 0.0
2015-Jan-18 18:29N 01°15' E 103°53'0 0.0
2015-Jan-18 17:20N 01°15' E 103°53'0 0.0
2015-Jan-18 16:26N 01°15' E 103°53'0 0.0
2015-Jan-18 15:32N 01°15' E 103°53'0 0.0
2015-Jan-18 14:32N 01°15' E 103°53'0 0.0
2015-Jan-18 13:05N 01°15' E 103°53'0 0.0
2015-Jan-18 12:29N 01°15' E 103°53'0 0.0
2015-Jan-18 11:17N 01°15' E 103°53'0 0.0
2015-Jan-18 09:29N 01°15' E 103°53'0 0.1
2015-Jan-18 08:29N 01°15' E 103°53'0 0.1
2015-Jan-18 07:32N 01°15' E 103°53'0 0.1
2015-Jan-18 06:33N 01°15' E 103°53'1 1.1
2015-Jan-18 05:33N 01°15' E 103°54'7 6.6
2015-Jan-18 04:32N 01°10' E 103°49'7610.6
2015-Jan-17 21:25N 01°42' E 102°40'1618.1
2015-Jan-17 20:33N 01°48' E 102°26'  

Dump ship's entire track history